sensor_id;sensor_type;location;lat;lon;timestamp;P1;durP1;ratioP1;P2;durP2;ratioP2
52318;SDS011;38258;51.148;14.068;2023-04-24T00:02:20;6.85;;;4.00;;
52318;SDS011;38258;51.148;14.068;2023-04-24T00:04:49;7.25;;;3.90;;
52318;SDS011;38258;51.148;14.068;2023-04-24T00:07:16;6.38;;;3.53;;
52318;SDS011;38258;51.148;14.068;2023-04-24T00:09:45;6.70;;;3.67;;
52318;SDS011;38258;51.148;14.068;2023-04-24T00:12:15;7.00;;;3.63;;
52318;SDS011;38258;51.148;14.068;2023-04-24T00:14:44;7.28;;;3.88;;
52318;SDS011;38258;51.148;14.068;2023-04-24T00:17:11;6.90;;;3.75;;
52318;SDS011;38258;51.148;14.068;2023-04-24T00:19:38;7.07;;;3.47;;
52318;SDS011;38258;51.148;14.068;2023-04-24T00:22:05;5.88;;;3.78;;
52318;SDS011;38258;51.148;14.068;2023-04-24T00:24:34;6.47;;;3.65;;
52318;SDS011;38258;51.148;14.068;2023-04-24T00:27:08;8.77;;;3.97;;
52318;SDS011;38258;51.148;14.068;2023-04-24T00:29:37;7.60;;;4.15;;
52318;SDS011;38258;51.148;14.068;2023-04-24T00:32:07;7.95;;;3.97;;
52318;SDS011;38258;51.148;14.068;2023-04-24T00:34:34;6.30;;;3.55;;
52318;SDS011;38258;51.148;14.068;2023-04-24T00:37:01;6.93;;;3.78;;
52318;SDS011;38258;51.148;14.068;2023-04-24T00:39:28;7.30;;;3.67;;
52318;SDS011;38258;51.148;14.068;2023-04-24T00:41:55;9.25;;;3.88;;
52318;SDS011;38258;51.148;14.068;2023-04-24T00:44:23;5.80;;;3.95;;
52318;SDS011;38258;51.148;14.068;2023-04-24T00:49:34;6.68;;;3.95;;
52318;SDS011;38258;51.148;14.068;2023-04-24T00:52:03;6.40;;;3.90;;
52318;SDS011;38258;51.148;14.068;2023-04-24T00:54:32;7.18;;;4.00;;
52318;SDS011;38258;51.148;14.068;2023-04-24T00:56:59;7.60;;;4.18;;
52318;SDS011;38258;51.148;14.068;2023-04-24T00:59:28;8.38;;;3.38;;
52318;SDS011;38258;51.148;14.068;2023-04-24T01:01:56;8.00;;;3.85;;
52318;SDS011;38258;51.148;14.068;2023-04-24T01:04:28;6.57;;;3.92;;
52318;SDS011;38258;51.148;14.068;2023-04-24T01:06:57;7.07;;;3.92;;
52318;SDS011;38258;51.148;14.068;2023-04-24T01:09:24;7.05;;;3.90;;
52318;SDS011;38258;51.148;14.068;2023-04-24T01:11:51;6.57;;;3.92;;
52318;SDS011;38258;51.148;14.068;2023-04-24T01:14:19;7.18;;;3.97;;
52318;SDS011;38258;51.148;14.068;2023-04-24T01:16:48;8.38;;;3.90;;
52318;SDS011;38258;51.148;14.068;2023-04-24T01:19:15;7.95;;;4.22;;
52318;SDS011;38258;51.148;14.068;2023-04-24T01:21:50;8.07;;;4.28;;
52318;SDS011;38258;51.148;14.068;2023-04-24T01:24:22;7.93;;;4.53;;
52318;SDS011;38258;51.148;14.068;2023-04-24T01:26:51;6.80;;;3.90;;
52318;SDS011;38258;51.148;14.068;2023-04-24T01:29:18;7.95;;;4.53;;
52318;SDS011;38258;51.148;14.068;2023-04-24T01:31:45;7.68;;;4.18;;
52318;SDS011;38258;51.148;14.068;2023-04-24T01:34:14;8.93;;;4.53;;
52318;SDS011;38258;51.148;14.068;2023-04-24T01:36:42;7.20;;;4.43;;
52318;SDS011;38258;51.148;14.068;2023-04-24T01:39:11;7.25;;;4.40;;
52318;SDS011;38258;51.148;14.068;2023-04-24T01:41:40;7.15;;;4.65;;
52318;SDS011;38258;51.148;14.068;2023-04-24T01:44:10;9.02;;;4.78;;
52318;SDS011;38258;51.148;14.068;2023-04-24T01:46:37;7.10;;;3.67;;
52318;SDS011;38258;51.148;14.068;2023-04-24T01:49:05;11.32;;;4.68;;
52318;SDS011;38258;51.148;14.068;2023-04-24T01:51:32;7.30;;;4.32;;
52318;SDS011;38258;51.148;14.068;2023-04-24T01:53:59;10.27;;;4.70;;
52318;SDS011;38258;51.148;14.068;2023-04-24T01:56:25;8.40;;;4.63;;
52318;SDS011;38258;51.148;14.068;2023-04-24T01:58:57;9.93;;;4.63;;
52318;SDS011;38258;51.148;14.068;2023-04-24T02:01:24;7.65;;;4.13;;
52318;SDS011;38258;51.148;14.068;2023-04-24T02:03:51;7.28;;;4.53;;
52318;SDS011;38258;51.148;14.068;2023-04-24T02:06:21;8.60;;;4.43;;
52318;SDS011;38258;51.148;14.068;2023-04-24T02:08:53;6.85;;;4.00;;
52318;SDS011;38258;51.148;14.068;2023-04-24T02:11:21;7.13;;;4.43;;
52318;SDS011;38258;51.148;14.068;2023-04-24T02:13:47;8.30;;;4.70;;
52318;SDS011;38258;51.148;14.068;2023-04-24T02:16:17;9.40;;;4.82;;
52318;SDS011;38258;51.148;14.068;2023-04-24T02:18:44;8.15;;;4.50;;
52318;SDS011;38258;51.148;14.068;2023-04-24T02:21:11;9.90;;;4.57;;
52318;SDS011;38258;51.148;14.068;2023-04-24T02:23:38;9.27;;;4.68;;
52318;SDS011;38258;51.148;14.068;2023-04-24T02:26:05;7.82;;;4.20;;
52318;SDS011;38258;51.148;14.068;2023-04-24T02:28:32;9.15;;;4.78;;
52318;SDS011;38258;51.148;14.068;2023-04-24T02:31:01;8.40;;;4.82;;
52318;SDS011;38258;51.148;14.068;2023-04-24T02:33:30;8.50;;;4.45;;
52318;SDS011;38258;51.148;14.068;2023-04-24T02:36:02;6.72;;;4.15;;
52318;SDS011;38258;51.148;14.068;2023-04-24T02:38:29;7.97;;;4.63;;
52318;SDS011;38258;51.148;14.068;2023-04-24T02:40:56;7.57;;;4.57;;
52318;SDS011;38258;51.148;14.068;2023-04-24T02:43:25;8.40;;;4.22;;
52318;SDS011;38258;51.148;14.068;2023-04-24T02:49:51;7.10;;;4.35;;
52318;SDS011;38258;51.148;14.068;2023-04-24T02:52:18;8.25;;;4.55;;
52318;SDS011;38258;51.148;14.068;2023-04-24T02:54:45;8.95;;;5.18;;
52318;SDS011;38258;51.148;14.068;2023-04-24T02:57:11;9.43;;;5.30;;
52318;SDS011;38258;51.148;14.068;2023-04-24T02:59:40;7.63;;;4.75;;
52318;SDS011;38258;51.148;14.068;2023-04-24T03:02:08;8.27;;;5.00;;
52318;SDS011;38258;51.148;14.068;2023-04-24T03:04:38;6.85;;;4.45;;
52318;SDS011;38258;51.148;14.068;2023-04-24T03:07:09;8.32;;;4.63;;
52318;SDS011;38258;51.148;14.068;2023-04-24T03:09:36;6.95;;;4.40;;
52318;SDS011;38258;51.148;14.068;2023-04-24T03:12:03;7.20;;;4.57;;
52318;SDS011;38258;51.148;14.068;2023-04-24T03:14:29;8.02;;;4.45;;
52318;SDS011;38258;51.148;14.068;2023-04-24T03:16:57;9.95;;;4.88;;
52318;SDS011;38258;51.148;14.068;2023-04-24T03:19:23;9.68;;;4.78;;
52318;SDS011;38258;51.148;14.068;2023-04-24T03:22:02;7.68;;;4.97;;
52318;SDS011;38258;51.148;14.068;2023-04-24T03:24:31;10.07;;;5.07;;
52318;SDS011;38258;51.148;14.068;2023-04-24T03:27:01;7.65;;;4.40;;
52318;SDS011;38258;51.148;14.068;2023-04-24T03:29:46;9.35;;;4.72;;
52318;SDS011;38258;51.148;14.068;2023-04-24T03:32:14;7.32;;;3.42;;
52318;SDS011;38258;51.148;14.068;2023-04-24T03:34:42;4.53;;;3.13;;
52318;SDS011;38258;51.148;14.068;2023-04-24T03:37:10;6.63;;;3.95;;
52318;SDS011;38258;51.148;14.068;2023-04-24T03:39:42;5.72;;;3.15;;
52318;SDS011;38258;51.148;14.068;2023-04-24T03:42:10;6.63;;;3.53;;
52318;SDS011;38258;51.148;14.068;2023-04-24T03:44:47;5.35;;;3.38;;
52318;SDS011;38258;51.148;14.068;2023-04-24T03:47:15;6.05;;;3.40;;
52318;SDS011;38258;51.148;14.068;2023-04-24T03:49:44;5.28;;;3.22;;
52318;SDS011;38258;51.148;14.068;2023-04-24T03:52:11;6.93;;;3.08;;
52318;SDS011;38258;51.148;14.068;2023-04-24T03:54:38;7.38;;;3.85;;
52318;SDS011;38258;51.148;14.068;2023-04-24T03:57:06;5.80;;;3.20;;
52318;SDS011;38258;51.148;14.068;2023-04-24T03:59:36;6.93;;;3.78;;
52318;SDS011;38258;51.148;14.068;2023-04-24T04:02:14;6.05;;;3.60;;
52318;SDS011;38258;51.148;14.068;2023-04-24T04:04:42;7.28;;;4.03;;
52318;SDS011;38258;51.148;14.068;2023-04-24T04:07:09;7.50;;;3.97;;
52318;SDS011;38258;51.148;14.068;2023-04-24T04:09:37;9.07;;;4.75;;
52318;SDS011;38258;51.148;14.068;2023-04-24T04:12:03;9.50;;;5.47;;
52318;SDS011;38258;51.148;14.068;2023-04-24T04:14:33;10.70;;;5.43;;
52318;SDS011;38258;51.148;14.068;2023-04-24T04:17:01;10.05;;;5.57;;
52318;SDS011;38258;51.148;14.068;2023-04-24T04:19:28;11.15;;;6.25;;
52318;SDS011;38258;51.148;14.068;2023-04-24T04:21:54;10.90;;;6.38;;
52318;SDS011;38258;51.148;14.068;2023-04-24T04:24:40;10.00;;;5.47;;
52318;SDS011;38258;51.148;14.068;2023-04-24T04:27:07;10.75;;;5.38;;
52318;SDS011;38258;51.148;14.068;2023-04-24T04:29:44;10.52;;;5.90;;
52318;SDS011;38258;51.148;14.068;2023-04-24T04:32:13;8.95;;;5.05;;
52318;SDS011;38258;51.148;14.068;2023-04-24T04:34:40;8.27;;;5.13;;
52318;SDS011;38258;51.148;14.068;2023-04-24T04:37:10;10.07;;;4.53;;
52318;SDS011;38258;51.148;14.068;2023-04-24T04:39:47;7.68;;;4.28;;
52318;SDS011;38258;51.148;14.068;2023-04-24T04:42:20;5.28;;;3.08;;
52318;SDS011;38258;51.148;14.068;2023-04-24T04:44:50;3.65;;;1.83;;
52318;SDS011;38258;51.148;14.068;2023-04-24T04:47:21;3.83;;;2.20;;
52318;SDS011;38258;51.148;14.068;2023-04-24T04:49:50;3.38;;;2.15;;
52318;SDS011;38258;51.148;14.068;2023-04-24T04:52:20;2.60;;;1.85;;
52318;SDS011;38258;51.148;14.068;2023-04-24T04:54:53;4.53;;;2.00;;
52318;SDS011;38258;51.148;14.068;2023-04-24T04:57:22;5.60;;;2.05;;
52318;SDS011;38258;51.148;14.068;2023-04-24T04:59:51;9.38;;;2.22;;
52318;SDS011;38258;51.148;14.068;2023-04-24T05:02:30;2.38;;;1.55;;
52318;SDS011;38258;51.148;14.068;2023-04-24T05:04:57;3.30;;;1.70;;
52318;SDS011;38258;51.148;14.068;2023-04-24T05:07:24;2.95;;;1.63;;
52318;SDS011;38258;51.148;14.068;2023-04-24T05:09:54;3.10;;;1.73;;
52318;SDS011;38258;51.148;14.068;2023-04-24T05:12:21;2.78;;;1.70;;
52318;SDS011;38258;51.148;14.068;2023-04-24T05:14:52;2.60;;;1.70;;
52318;SDS011;38258;51.148;14.068;2023-04-24T05:17:19;2.47;;;1.60;;
52318;SDS011;38258;51.148;14.068;2023-04-24T05:19:48;2.40;;;1.70;;
52318;SDS011;38258;51.148;14.068;2023-04-24T05:22:15;3.03;;;1.50;;
52318;SDS011;38258;51.148;14.068;2023-04-24T05:24:48;2.70;;;1.48;;
52318;SDS011;38258;51.148;14.068;2023-04-24T05:27:35;2.20;;;1.40;;
52318;SDS011;38258;51.148;14.068;2023-04-24T05:30:09;3.00;;;1.50;;
52318;SDS011;38258;51.148;14.068;2023-04-24T05:32:43;2.83;;;1.20;;
52318;SDS011;38258;51.148;14.068;2023-04-24T05:35:10;1.40;;;1.20;;
52318;SDS011;38258;51.148;14.068;2023-04-24T05:37:39;2.03;;;1.42;;
52318;SDS011;38258;51.148;14.068;2023-04-24T05:40:08;3.45;;;1.60;;
52318;SDS011;38258;51.148;14.068;2023-04-24T05:42:39;2.58;;;1.40;;
52318;SDS011;38258;51.148;14.068;2023-04-24T05:45:28;3.58;;;1.58;;
52318;SDS011;38258;51.148;14.068;2023-04-24T05:48:13;2.80;;;1.60;;
52318;SDS011;38258;51.148;14.068;2023-04-24T05:51:04;2.15;;;1.40;;
52318;SDS011;38258;51.148;14.068;2023-04-24T05:58:10;1.88;;;1.30;;
52318;SDS011;38258;51.148;14.068;2023-04-24T06:04:19;2.20;;;1.50;;
52318;SDS011;38258;51.148;14.068;2023-04-24T06:07:29;1.92;;;1.40;;
52318;SDS011;38258;51.148;14.068;2023-04-24T06:10:27;2.05;;;1.40;;
52318;SDS011;38258;51.148;14.068;2023-04-24T06:13:38;1.85;;;1.30;;
52318;SDS011;38258;51.148;14.068;2023-04-24T06:20:48;2.38;;;1.52;;
52318;SDS011;38258;51.148;14.068;2023-04-24T06:23:25;1.92;;;1.40;;
52318;SDS011;38258;51.148;14.068;2023-04-24T06:26:00;2.20;;;1.40;;
52318;SDS011;38258;51.148;14.068;2023-04-24T06:28:45;1.60;;;1.30;;
52318;SDS011;38258;51.148;14.068;2023-04-24T06:31:18;1.65;;;1.23;;
52318;SDS011;38258;51.148;14.068;2023-04-24T06:33:45;2.10;;;1.20;;
52318;SDS011;38258;51.148;14.068;2023-04-24T06:36:16;2.50;;;1.27;;
52318;SDS011;38258;51.148;14.068;2023-04-24T06:38:51;1.95;;;1.30;;
52318;SDS011;38258;51.148;14.068;2023-04-24T06:41:17;2.70;;;1.17;;
52318;SDS011;38258;51.148;14.068;2023-04-24T06:43:57;2.08;;;1.30;;
52318;SDS011;38258;51.148;14.068;2023-04-24T06:46:38;1.73;;;1.38;;
52318;SDS011;38258;51.148;14.068;2023-04-24T07:10:20;3.42;;;1.20;;
52318;SDS011;38258;51.148;14.068;2023-04-24T07:13:30;1.60;;;1.20;;
52318;SDS011;38258;51.148;14.068;2023-04-24T07:19:00;3.60;;;1.30;;
52318;SDS011;38258;51.148;14.068;2023-04-24T07:21:47;1.23;;;1.13;;
52318;SDS011;38258;51.148;14.068;2023-04-24T07:25:08;1.80;;;1.00;;
52318;SDS011;38258;51.148;14.068;2023-04-24T07:27:45;1.35;;;1.10;;
52318;SDS011;38258;51.148;14.068;2023-04-24T07:30:32;1.60;;;1.10;;
52318;SDS011;38258;51.148;14.068;2023-04-24T07:33:31;1.27;;;1.10;;
52318;SDS011;38258;51.148;14.068;2023-04-24T07:36:10;1.92;;;1.30;;
52318;SDS011;38258;51.148;14.068;2023-04-24T07:39:34;1.48;;;1.10;;
52318;SDS011;38258;51.148;14.068;2023-04-24T07:42:13;1.55;;;1.20;;
52318;SDS011;38258;51.148;14.068;2023-04-24T07:44:41;3.40;;;1.10;;
52318;SDS011;38258;51.148;14.068;2023-04-24T07:47:10;1.98;;;1.30;;
52318;SDS011;38258;51.148;14.068;2023-04-24T07:49:37;2.30;;;1.20;;
52318;SDS011;38258;51.148;14.068;2023-04-24T07:52:04;1.65;;;1.30;;
52318;SDS011;38258;51.148;14.068;2023-04-24T07:54:34;1.88;;;1.30;;
52318;SDS011;38258;51.148;14.068;2023-04-24T07:57:06;2.28;;;1.27;;
52318;SDS011;38258;51.148;14.068;2023-04-24T07:59:33;1.42;;;1.30;;
52318;SDS011;38258;51.148;14.068;2023-04-24T08:02:03;3.85;;;1.50;;
52318;SDS011;38258;51.148;14.068;2023-04-24T08:04:31;1.88;;;1.20;;
52318;SDS011;38258;51.148;14.068;2023-04-24T08:06:58;2.17;;;1.20;;
52318;SDS011;38258;51.148;14.068;2023-04-24T08:09:24;2.08;;;1.25;;
52318;SDS011;38258;51.148;14.068;2023-04-24T08:11:55;3.30;;;1.27;;
52318;SDS011;38258;51.148;14.068;2023-04-24T08:14:25;3.13;;;1.50;;
52318;SDS011;38258;51.148;14.068;2023-04-24T08:16:55;2.45;;;1.45;;
52318;SDS011;38258;51.148;14.068;2023-04-24T08:19:22;1.77;;;1.10;;
52318;SDS011;38258;51.148;14.068;2023-04-24T08:21:50;1.58;;;1.20;;
52318;SDS011;38258;51.148;14.068;2023-04-24T08:24:21;2.53;;;1.30;;
52318;SDS011;38258;51.148;14.068;2023-04-24T08:26:55;2.85;;;1.48;;
52318;SDS011;38258;51.148;14.068;2023-04-24T08:29:31;2.50;;;1.30;;
52318;SDS011;38258;51.148;14.068;2023-04-24T08:32:00;1.13;;;1.00;;
52318;SDS011;38258;51.148;14.068;2023-04-24T08:34:26;1.55;;;1.27;;
52318;SDS011;38258;51.148;14.068;2023-04-24T08:37:17;1.88;;;1.27;;
52318;SDS011;38258;51.148;14.068;2023-04-24T08:39:52;2.45;;;1.60;;
52318;SDS011;38258;51.148;14.068;2023-04-24T08:42:25;11.43;;;6.57;;
52318;SDS011;38258;51.148;14.068;2023-04-24T08:45:00;7.68;;;5.05;;
52318;SDS011;38258;51.148;14.068;2023-04-24T08:47:27;2.78;;;1.55;;
52318;SDS011;38258;51.148;14.068;2023-04-24T08:49:55;2.50;;;1.63;;
52318;SDS011;38258;51.148;14.068;2023-04-24T08:52:23;3.88;;;1.55;;
52318;SDS011;38258;51.148;14.068;2023-04-24T08:54:53;3.58;;;2.10;;
52318;SDS011;38258;51.148;14.068;2023-04-24T08:57:21;2.08;;;1.38;;
52318;SDS011;38258;51.148;14.068;2023-04-24T08:59:48;2.22;;;1.30;;
52318;SDS011;38258;51.148;14.068;2023-04-24T09:02:17;1.42;;;1.33;;
52318;SDS011;38258;51.148;14.068;2023-04-24T09:04:44;1.70;;;1.30;;
52318;SDS011;38258;51.148;14.068;2023-04-24T09:07:13;1.77;;;1.20;;
52318;SDS011;38258;51.148;14.068;2023-04-24T09:09:40;1.50;;;1.20;;
52318;SDS011;38258;51.148;14.068;2023-04-24T09:12:08;1.27;;;0.90;;
52318;SDS011;38258;51.148;14.068;2023-04-24T09:14:35;1.05;;;1.00;;
52318;SDS011;38258;51.148;14.068;2023-04-24T09:17:04;1.02;;;0.90;;
52318;SDS011;38258;51.148;14.068;2023-04-24T09:19:33;0.80;;;0.77;;
52318;SDS011;38258;51.148;14.068;2023-04-24T09:22:00;2.88;;;1.20;;
52318;SDS011;38258;51.148;14.068;2023-04-24T09:24:31;1.65;;;1.20;;
52318;SDS011;38258;51.148;14.068;2023-04-24T09:26:58;2.97;;;1.30;;
52318;SDS011;38258;51.148;14.068;2023-04-24T09:29:26;1.27;;;1.00;;
52318;SDS011;38258;51.148;14.068;2023-04-24T09:31:53;1.45;;;1.17;;
52318;SDS011;38258;51.148;14.068;2023-04-24T09:34:20;1.88;;;1.30;;
52318;SDS011;38258;51.148;14.068;2023-04-24T09:36:50;3.72;;;1.25;;
52318;SDS011;38258;51.148;14.068;2023-04-24T09:39:17;2.83;;;1.17;;
52318;SDS011;38258;51.148;14.068;2023-04-24T09:41:45;2.38;;;1.23;;
52318;SDS011;38258;51.148;14.068;2023-04-24T09:44:13;2.60;;;1.10;;
52318;SDS011;38258;51.148;14.068;2023-04-24T09:46:41;2.55;;;1.50;;
52318;SDS011;38258;51.148;14.068;2023-04-24T09:49:10;3.80;;;2.00;;
52318;SDS011;38258;51.148;14.068;2023-04-24T09:51:39;5.10;;;2.67;;
52318;SDS011;38258;51.148;14.068;2023-04-24T09:54:12;5.03;;;2.95;;
52318;SDS011;38258;51.148;14.068;2023-04-24T09:56:41;5.78;;;3.40;;
52318;SDS011;38258;51.148;14.068;2023-04-24T09:59:10;4.05;;;2.55;;
52318;SDS011;38258;51.148;14.068;2023-04-24T10:01:36;2.95;;;1.83;;
52318;SDS011;38258;51.148;14.068;2023-04-24T10:04:08;1.45;;;1.10;;
52318;SDS011;38258;51.148;14.068;2023-04-24T10:06:41;1.63;;;1.10;;
52318;SDS011;38258;51.148;14.068;2023-04-24T10:09:09;2.10;;;1.35;;
52318;SDS011;38258;51.148;14.068;2023-04-24T10:11:39;4.10;;;2.42;;
52318;SDS011;38258;51.148;14.068;2023-04-24T10:14:09;8.57;;;4.30;;
52318;SDS011;38258;51.148;14.068;2023-04-24T10:16:37;8.48;;;4.07;;
52318;SDS011;38258;51.148;14.068;2023-04-24T10:19:05;7.18;;;4.00;;
52318;SDS011;38258;51.148;14.068;2023-04-24T10:21:32;9.20;;;4.93;;
52318;SDS011;38258;51.148;14.068;2023-04-24T10:24:00;8.27;;;4.25;;
52318;SDS011;38258;51.148;14.068;2023-04-24T10:26:28;5.90;;;3.85;;
52318;SDS011;38258;51.148;14.068;2023-04-24T10:28:57;8.25;;;4.10;;
52318;SDS011;38258;51.148;14.068;2023-04-24T10:31:24;5.60;;;3.35;;
52318;SDS011;38258;51.148;14.068;2023-04-24T10:33:52;6.65;;;3.38;;
52318;SDS011;38258;51.148;14.068;2023-04-24T10:36:20;4.82;;;2.88;;
52318;SDS011;38258;51.148;14.068;2023-04-24T10:38:51;5.57;;;3.08;;
52318;SDS011;38258;51.148;14.068;2023-04-24T10:41:21;5.80;;;2.92;;
52318;SDS011;38258;51.148;14.068;2023-04-24T10:44:04;5.18;;;2.90;;
52318;SDS011;38258;51.148;14.068;2023-04-24T10:46:32;6.20;;;3.05;;
52318;SDS011;38258;51.148;14.068;2023-04-24T10:48:59;7.05;;;3.05;;
52318;SDS011;38258;51.148;14.068;2023-04-24T10:51:47;4.63;;;2.60;;
52318;SDS011;38258;51.148;14.068;2023-04-24T10:54:25;6.60;;;3.17;;
52318;SDS011;38258;51.148;14.068;2023-04-24T10:56:52;4.70;;;2.78;;
52318;SDS011;38258;51.148;14.068;2023-04-24T10:59:41;5.30;;;2.80;;
52318;SDS011;38258;51.148;14.068;2023-04-24T11:02:07;4.30;;;2.58;;
52318;SDS011;38258;51.148;14.068;2023-04-24T11:04:34;4.75;;;2.80;;
52318;SDS011;38258;51.148;14.068;2023-04-24T11:07:02;3.97;;;2.83;;
52318;SDS011;38258;51.148;14.068;2023-04-24T11:09:30;3.58;;;2.10;;
52318;SDS011;38258;51.148;14.068;2023-04-24T11:12:04;1.10;;;1.00;;
52318;SDS011;38258;51.148;14.068;2023-04-24T11:17:32;1.27;;;0.82;;
52318;SDS011;38258;51.148;14.068;2023-04-24T11:20:03;0.88;;;0.85;;
52318;SDS011;38258;51.148;14.068;2023-04-24T11:22:32;3.70;;;1.80;;
52318;SDS011;38258;51.148;14.068;2023-04-24T11:25:01;3.00;;;1.55;;
52318;SDS011;38258;51.148;14.068;2023-04-24T11:27:31;2.55;;;1.27;;
52318;SDS011;38258;51.148;14.068;2023-04-24T11:32:36;1.27;;;0.90;;
52318;SDS011;38258;51.148;14.068;2023-04-24T11:35:04;2.20;;;1.20;;
52318;SDS011;38258;51.148;14.068;2023-04-24T11:37:34;1.48;;;1.00;;
52318;SDS011;38258;51.148;14.068;2023-04-24T11:40:02;2.03;;;1.00;;
52318;SDS011;38258;51.148;14.068;2023-04-24T11:42:33;1.55;;;1.00;;
52318;SDS011;38258;51.148;14.068;2023-04-24T11:45:00;1.50;;;1.20;;
52318;SDS011;38258;51.148;14.068;2023-04-24T11:47:27;1.52;;;1.10;;
52318;SDS011;38258;51.148;14.068;2023-04-24T11:49:56;1.33;;;1.20;;
52318;SDS011;38258;51.148;14.068;2023-04-24T11:52:24;1.92;;;1.30;;
52318;SDS011;38258;51.148;14.068;2023-04-24T11:54:51;1.27;;;1.10;;
52318;SDS011;38258;51.148;14.068;2023-04-24T11:57:19;3.28;;;1.92;;
52318;SDS011;38258;51.148;14.068;2023-04-24T11:59:46;3.05;;;1.75;;
52318;SDS011;38258;51.148;14.068;2023-04-24T12:02:20;2.58;;;1.80;;
52318;SDS011;38258;51.148;14.068;2023-04-24T12:04:47;3.47;;;2.72;;
52318;SDS011;38258;51.148;14.068;2023-04-24T12:07:16;4.82;;;2.40;;
52318;SDS011;38258;51.148;14.068;2023-04-24T12:09:43;3.05;;;1.50;;
52318;SDS011;38258;51.148;14.068;2023-04-24T12:12:12;2.60;;;1.30;;
52318;SDS011;38258;51.148;14.068;2023-04-24T12:14:43;3.50;;;1.92;;
52318;SDS011;38258;51.148;14.068;2023-04-24T12:17:10;3.15;;;1.83;;
52318;SDS011;38258;51.148;14.068;2023-04-24T12:19:37;2.13;;;1.10;;
52318;SDS011;38258;51.148;14.068;2023-04-24T12:22:04;0.90;;;0.90;;
52318;SDS011;38258;51.148;14.068;2023-04-24T12:24:33;1.92;;;0.98;;
52318;SDS011;38258;51.148;14.068;2023-04-24T12:27:00;0.98;;;0.90;;
52318;SDS011;38258;51.148;14.068;2023-04-24T12:29:27;9.77;;;4.68;;
52318;SDS011;38258;51.148;14.068;2023-04-24T12:31:54;1.70;;;1.00;;
52318;SDS011;38258;51.148;14.068;2023-04-24T12:34:21;1.33;;;1.08;;
52318;SDS011;38258;51.148;14.068;2023-04-24T12:36:50;8.80;;;4.18;;
52318;SDS011;38258;51.148;14.068;2023-04-24T12:39:17;3.90;;;1.10;;
52318;SDS011;38258;51.148;14.068;2023-04-24T12:41:55;1.35;;;1.10;;
52318;SDS011;38258;51.148;14.068;2023-04-24T12:44:29;2.60;;;1.23;;
52318;SDS011;38258;51.148;14.068;2023-04-24T12:46:56;12.95;;;6.32;;
52318;SDS011;38258;51.148;14.068;2023-04-24T12:49:23;1.75;;;1.25;;
52318;SDS011;38258;51.148;14.068;2023-04-24T12:51:50;2.50;;;1.38;;
52318;SDS011;38258;51.148;14.068;2023-04-24T12:54:17;1.65;;;1.35;;
52318;SDS011;38258;51.148;14.068;2023-04-24T12:56:44;2.72;;;1.67;;
52318;SDS011;38258;51.148;14.068;2023-04-24T12:59:12;3.45;;;1.80;;
52318;SDS011;38258;51.148;14.068;2023-04-24T13:01:38;3.08;;;1.70;;
52318;SDS011;38258;51.148;14.068;2023-04-24T13:04:05;1.33;;;1.10;;
52318;SDS011;38258;51.148;14.068;2023-04-24T13:06:32;2.47;;;1.52;;
52318;SDS011;38258;51.148;14.068;2023-04-24T13:08:59;3.13;;;1.30;;
52318;SDS011;38258;51.148;14.068;2023-04-24T13:11:26;3.05;;;1.40;;
52318;SDS011;38258;51.148;14.068;2023-04-24T13:13:52;1.60;;;1.15;;
52318;SDS011;38258;51.148;14.068;2023-04-24T13:16:20;1.52;;;1.00;;
52318;SDS011;38258;51.148;14.068;2023-04-24T13:18:48;1.83;;;1.33;;
52318;SDS011;38258;51.148;14.068;2023-04-24T13:21:14;1.35;;;0.85;;
52318;SDS011;38258;51.148;14.068;2023-04-24T13:23:42;1.30;;;1.20;;
52318;SDS011;38258;51.148;14.068;2023-04-24T13:26:09;1.85;;;1.30;;
52318;SDS011;38258;51.148;14.068;2023-04-24T13:28:36;3.53;;;1.20;;
52318;SDS011;38258;51.148;14.068;2023-04-24T13:31:03;1.67;;;1.10;;
52318;SDS011;38258;51.148;14.068;2023-04-24T13:33:32;1.50;;;0.98;;
52318;SDS011;38258;51.148;14.068;2023-04-24T13:35:59;2.50;;;1.63;;
52318;SDS011;38258;51.148;14.068;2023-04-24T13:38:26;2.35;;;1.30;;
52318;SDS011;38258;51.148;14.068;2023-04-24T13:40:52;2.30;;;1.20;;
52318;SDS011;38258;51.148;14.068;2023-04-24T13:43:20;2.40;;;1.33;;
52318;SDS011;38258;51.148;14.068;2023-04-24T13:45:46;2.63;;;1.50;;
52318;SDS011;38258;51.148;14.068;2023-04-24T13:48:13;2.40;;;1.30;;
52318;SDS011;38258;51.148;14.068;2023-04-24T13:50:42;3.00;;;1.40;;
52318;SDS011;38258;51.148;14.068;2023-04-24T13:53:09;1.67;;;1.30;;
52318;SDS011;38258;51.148;14.068;2023-04-24T13:55:36;1.90;;;1.20;;
52318;SDS011;38258;51.148;14.068;2023-04-24T13:58:04;2.50;;;1.90;;
52318;SDS011;38258;51.148;14.068;2023-04-24T14:00:31;2.78;;;1.30;;
52318;SDS011;38258;51.148;14.068;2023-04-24T14:02:58;2.55;;;1.38;;
52318;SDS011;38258;51.148;14.068;2023-04-24T14:05:25;2.78;;;1.40;;
52318;SDS011;38258;51.148;14.068;2023-04-24T14:07:53;2.65;;;2.00;;
52318;SDS011;38258;51.148;14.068;2023-04-24T14:10:19;2.60;;;1.67;;
52318;SDS011;38258;51.148;14.068;2023-04-24T14:12:46;1.52;;;1.10;;
52318;SDS011;38258;51.148;14.068;2023-04-24T14:15:13;0.98;;;0.90;;
52318;SDS011;38258;51.148;14.068;2023-04-24T14:17:40;1.95;;;1.30;;
52318;SDS011;38258;51.148;14.068;2023-04-24T14:20:07;2.53;;;1.48;;
52318;SDS011;38258;51.148;14.068;2023-04-24T14:22:34;1.90;;;1.60;;
52318;SDS011;38258;51.148;14.068;2023-04-24T14:25:03;1.77;;;1.20;;
52318;SDS011;38258;51.148;14.068;2023-04-24T14:27:31;2.30;;;1.48;;
52318;SDS011;38258;51.148;14.068;2023-04-24T14:29:59;1.33;;;1.05;;
52318;SDS011;38258;51.148;14.068;2023-04-24T14:32:28;2.92;;;1.30;;
52318;SDS011;38258;51.148;14.068;2023-04-24T14:34:54;2.13;;;1.40;;
52318;SDS011;38258;51.148;14.068;2023-04-24T14:37:21;3.88;;;1.20;;
52318;SDS011;38258;51.148;14.068;2023-04-24T14:39:47;4.07;;;1.40;;
52318;SDS011;38258;51.148;14.068;2023-04-24T14:42:16;1.48;;;1.10;;
52318;SDS011;38258;51.148;14.068;2023-04-24T14:44:43;2.88;;;1.10;;
52318;SDS011;38258;51.148;14.068;2023-04-24T14:47:09;1.17;;;1.00;;
52318;SDS011;38258;51.148;14.068;2023-04-24T14:49:36;2.40;;;1.42;;
52318;SDS011;38258;51.148;14.068;2023-04-24T14:52:03;1.60;;;1.20;;
52318;SDS011;38258;51.148;14.068;2023-04-24T14:54:29;1.67;;;1.40;;
52318;SDS011;38258;51.148;14.068;2023-04-24T14:56:57;1.45;;;1.02;;
52318;SDS011;38258;51.148;14.068;2023-04-24T14:59:25;2.10;;;1.20;;
52318;SDS011;38258;51.148;14.068;2023-04-24T15:01:51;1.25;;;0.82;;
52318;SDS011;38258;51.148;14.068;2023-04-24T15:04:22;1.75;;;1.20;;
52318;SDS011;38258;51.148;14.068;2023-04-24T15:06:50;2.65;;;1.70;;
52318;SDS011;38258;51.148;14.068;2023-04-24T15:09:18;1.17;;;0.95;;
52318;SDS011;38258;51.148;14.068;2023-04-24T15:11:45;2.50;;;1.60;;
52318;SDS011;38258;51.148;14.068;2023-04-24T15:14:13;1.85;;;1.30;;
52318;SDS011;38258;51.148;14.068;2023-04-24T15:16:41;1.55;;;1.23;;
52318;SDS011;38258;51.148;14.068;2023-04-24T15:19:08;1.85;;;1.40;;
52318;SDS011;38258;51.148;14.068;2023-04-24T15:21:35;1.52;;;1.10;;
52318;SDS011;38258;51.148;14.068;2023-04-24T15:24:03;1.10;;;0.93;;
52318;SDS011;38258;51.148;14.068;2023-04-24T15:26:30;1.67;;;1.23;;
52318;SDS011;38258;51.148;14.068;2023-04-24T15:28:57;2.95;;;1.50;;
52318;SDS011;38258;51.148;14.068;2023-04-24T15:31:24;1.83;;;1.05;;
52318;SDS011;38258;51.148;14.068;2023-04-24T15:33:53;2.10;;;1.58;;
52318;SDS011;38258;51.148;14.068;2023-04-24T15:36:19;1.08;;;0.95;;
52318;SDS011;38258;51.148;14.068;2023-04-24T15:38:47;5.82;;;1.40;;
52318;SDS011;38258;51.148;14.068;2023-04-24T15:41:13;1.52;;;1.33;;